createdAt,value
2017-10-06T08:04:15.276Z,81.32
2017-10-06T08:05:25.238Z,82.08
2017-10-06T08:06:34.882Z,81.32
2017-10-06T08:07:45.169Z,81.6
2017-10-06T08:08:54.910Z,80.08
2017-10-06T08:10:05.190Z,81.23
2017-10-06T08:11:15.470Z,80.55
2017-10-06T08:12:25.747Z,80.55
2017-10-06T08:13:36.028Z,79.32
2017-10-06T08:14:45.913Z,80.27
2017-10-06T08:15:56.192Z,80.84
2017-10-06T08:17:06.148Z,80.46
2017-10-06T08:18:15.781Z,80.08
2017-10-06T08:19:26.061Z,80.55
2017-10-06T08:20:36.466Z,80.65
2017-10-06T08:21:46.428Z,80.84
2017-10-06T08:22:56.709Z,81.79
2017-10-06T08:24:06.986Z,81.41
2017-10-06T08:25:17.267Z,80.65
2017-10-06T08:26:27.641Z,80.08
2017-10-06T08:27:37.917Z,80.55
2017-10-06T08:28:47.875Z,79.51
2017-10-06T08:29:58.154Z,79.7
2017-10-06T08:31:08.117Z,79.89
2017-10-06T08:32:18.051Z,79.8
2017-10-06T08:33:28.032Z,80.36
2017-10-06T08:34:37.690Z,80.36
2017-10-06T08:35:47.968Z,80.55
2017-10-06T08:36:58.292Z,81.23
2017-10-06T08:38:08.090Z,81.32
2017-10-06T08:39:18.065Z,80.84
2017-10-06T08:40:28.340Z,81.03
2017-10-06T08:41:38.623Z,81.41
2017-10-06T08:42:48.904Z,81.13
2017-10-06T08:43:59.279Z,80.55
2017-10-06T08:45:09.240Z,80.84
2017-10-06T08:46:18.872Z,81.32
2017-10-06T08:47:28.829Z,81.6
2017-10-06T08:48:38.792Z,80.5
2017-10-06T08:49:51.371Z,80.41
2017-10-06T08:51:01.006Z,79.64
2017-10-06T08:52:11.314Z,79.46
2017-10-06T08:53:21.284Z,79.83
2017-10-06T08:54:31.564Z,79.27
2017-10-06T08:55:41.633Z,80.31
2017-10-06T08:56:51.909Z,79.83
2017-10-06T08:58:01.862Z,79.17
2017-10-06T08:59:11.175Z,79.93
2017-10-06T09:00:21.136Z,79.74
2017-10-06T09:01:31.514Z,79.78
2017-10-06T09:02:41.152Z,78.73
2017-10-06T09:03:50.787Z,77.87
2017-10-06T09:05:01.066Z,78.78
2017-10-06T09:06:10.378Z,78.25
2017-10-06T09:07:20.593Z,77.87
2017-10-06T09:08:30.876Z,77.87
2017-10-06T09:09:41.158Z,77.2
2017-10-06T09:10:51.437Z,76.25
2017-10-06T09:12:01.395Z,75.68
2017-10-06T09:13:11.502Z,75.59
2017-10-06T09:14:21.143Z,76.92
2017-10-06T09:15:31.105Z,76.16
2017-10-06T09:16:40.746Z,76.35
2017-10-06T09:17:51.026Z,77.3
2017-10-06T09:19:01.083Z,77.59
2017-10-06T09:20:10.721Z,76.82
2017-10-06T09:21:21.003Z,76.73
2017-10-06T09:22:30.957Z,76.16
2017-10-06T09:23:41.234Z,75.68
2017-10-06T09:24:51.299Z,75.78
2017-10-06T09:26:01.257Z,76.16
2017-10-06T09:27:11.214Z,76.16
2017-10-06T09:28:20.526Z,76.25
2017-10-06T09:29:30.820Z,74.63
2017-10-06T09:30:41.199Z,74.44
2017-10-06T09:31:51.514Z,74.06
2017-10-06T09:33:01.470Z,74.44
2017-10-06T09:34:11.750Z,75.87
2017-10-06T09:35:22.036Z,75.2
2017-10-06T09:36:31.769Z,75.11
2017-10-06T09:37:41.402Z,74.92
2017-10-06T09:38:51.360Z,75.3
2017-10-06T09:40:01.316Z,75.68
2017-10-06T09:41:11.273Z,75.78
2017-10-06T09:42:21.486Z,74.57
2017-10-06T09:43:31.446Z,74.1
2017-10-06T09:44:41.429Z,73.87
2017-10-06T09:45:51.078Z,74.63
2017-10-06T09:47:01.032Z,75.4
2017-10-06T09:48:11.414Z,75.4
2017-10-06T09:49:21.378Z,74.19
2017-10-06T09:50:31.339Z,74.16
2017-10-06T09:51:41.304Z,74.16
2017-10-06T09:52:51.588Z,74.01
2017-10-06T09:54:01.677Z,74.77
2017-10-06T09:55:11.312Z,76.86
2017-10-06T09:56:21.589Z,74.38
2017-10-06T09:57:31.875Z,74.38
2017-10-06T09:58:41.517Z,73.43
2017-10-06T09:59:51.799Z,74.01
2017-10-06T10:01:01.437Z,74.38
2017-10-06T10:02:11.087Z,72.67
2017-10-06T10:03:21.370Z,73.43
2017-10-06T10:04:31.667Z,73.33
2017-10-06T10:05:42.096Z,72.48
2017-10-06T10:06:52.376Z,73.33
2017-10-06T10:08:02.334Z,72.03
2017-10-06T10:09:12.286Z,72.48
2017-10-06T10:10:22.571Z,72.48
2017-10-06T10:11:34.309Z,72.48
2017-10-06T10:12:44.268Z,72.61
2017-10-06T10:13:54.548Z,72.51
2017-10-06T10:15:04.183Z,71.94
2017-10-06T10:16:14.465Z,71.75
2017-10-06T10:17:24.521Z,72.51
2017-10-06T10:18:34.479Z,72.13
2017-10-06T10:19:44.761Z,70.98
2017-10-06T10:20:54.394Z,72.89
2017-10-06T10:22:04.676Z,73.37
2017-10-06T10:23:14.090Z,72.64
2017-10-06T10:24:24.372Z,72.51
2017-10-06T10:25:34.339Z,71.88
2017-10-06T10:26:44.297Z,71.12
2017-10-06T10:27:54.579Z,71.37
2017-10-06T10:29:04.957Z,70.89
2017-10-06T10:30:14.594Z,70.89
2017-10-06T10:31:24.551Z,70.03
2017-10-06T10:32:34.546Z,70.03
2017-10-06T10:33:44.504Z,71.18
2017-10-06T10:34:54.884Z,71.41
2017-10-06T10:36:04.536Z,71.59
2017-10-06T10:37:14.497Z,71.02
2017-10-06T10:38:24.456Z,69.68
2017-10-06T10:39:34.744Z,72.55
2017-10-06T10:40:45.134Z,69.87
2017-10-06T10:41:55.415Z,69.87
2017-10-06T10:43:05.391Z,70.83
2017-10-06T10:44:15.351Z,71.21
2017-10-06T10:45:25.311Z,68.92
2017-10-06T10:46:35.050Z,68.54
2017-10-06T10:47:45.332Z,68.26
2017-10-06T10:48:54.973Z,69.68
2017-10-06T10:50:05.259Z,68.57
2017-10-06T10:51:15.224Z,67.52
2017-10-06T10:52:24.961Z,66.79
2017-10-06T10:53:34.604Z,66.41
2017-10-06T10:54:44.892Z,65.39
2017-10-06T10:55:54.852Z,64.34
2017-10-06T10:57:04.811Z,63
2017-10-06T10:58:17.197Z,63.19
2017-10-06T10:59:27.478Z,62.9
2017-10-06T11:00:37.455Z,62.43
2017-10-06T11:01:47.745Z,62.46
2017-10-06T11:02:57.388Z,62.17
2017-10-06T11:04:09.974Z,61.69
2017-10-06T11:05:20.259Z,61.98
2017-10-06T11:06:30.543Z,61.98
2017-10-06T11:07:40.858Z,62.17
2017-10-06T11:08:51.142Z,63.48
2017-10-06T11:10:01.533Z,63.35
2017-10-06T11:11:11.556Z,63.07
2017-10-06T11:12:21.196Z,64.05
2017-10-06T11:13:30.834Z,62.14
2017-10-06T11:14:40.795Z,62.71
2017-10-06T11:15:50.537Z,63.86
2017-10-06T11:17:00.505Z,61.98
2017-10-06T11:18:10.151Z,61.54
2017-10-06T11:19:19.800Z,62.49
2017-10-06T11:20:30.086Z,63.26
2017-10-06T11:21:40.725Z,61.63
2017-10-06T11:22:50.688Z,62.01
2017-10-06T11:24:00.651Z,62.01
2017-10-06T11:25:10.294Z,60.86
2017-10-06T11:26:19.939Z,62.4
2017-10-06T11:27:30.380Z,62.14
2017-10-06T11:28:40.673Z,59.58
2017-10-06T11:29:50.639Z,58.72
2017-10-06T11:31:00.956Z,58.53
2017-10-06T11:32:11.249Z,58.72
2017-10-06T11:33:20.749Z,58.53
2017-10-06T11:34:29.961Z,57.79
2017-10-06T11:35:40.130Z,56.83
2017-10-06T11:36:50.564Z,55.3
2017-10-06T11:38:00.562Z,56.74
2017-10-06T11:39:10.696Z,55.58
2017-10-06T11:40:20.018Z,55.3
2017-10-06T11:41:29.990Z,54.82
2017-10-06T11:42:40.281Z,56.54
2017-10-06T11:43:49.926Z,54.49
2017-10-06T11:45:00.042Z,54.39
2017-10-06T11:46:10.010Z,55.38
2017-10-06T11:47:19.668Z,53.61
2017-10-06T11:48:29.315Z,50.66
2017-10-06T11:49:39.283Z,52.94
2017-10-06T11:50:49.033Z,51.02
2017-10-06T11:51:58.679Z,49.99
2017-10-06T11:53:08.325Z,49.41
2017-10-06T11:54:18.619Z,48.74
2017-10-06T11:55:28.275Z,50.05
2017-10-06T11:56:38.670Z,51.31
2017-10-06T11:57:48.649Z,51.35
2017-10-06T11:58:58.940Z,48.59
2017-10-06T12:00:09.249Z,47.44
2017-10-06T12:01:19.220Z,47.03
2017-10-06T12:02:28.723Z,48.57
2017-10-06T12:03:38.371Z,49.12
2017-10-06T12:04:48.669Z,50.66
2017-10-06T12:05:58.636Z,49.31
2017-10-06T12:07:07.640Z,48.93
2017-10-06T12:08:17.977Z,49.29
2017-10-06T12:09:28.275Z,51.16
2017-10-06T12:10:38.568Z,50.58
2017-10-06T12:11:48.542Z,51.25
2017-10-06T12:12:58.510Z,51.9
2017-10-06T12:14:08.635Z,53.6
2017-10-06T12:15:18.604Z,54.53
2017-10-06T12:16:28.889Z,54.79
2017-10-06T12:17:38.856Z,54.5
2017-10-06T12:18:48.500Z,54.77
2017-10-06T12:19:58.889Z,56.27
2017-10-06T12:21:08.863Z,56.37
2017-10-06T12:22:18.828Z,57.32
2017-10-06T12:23:29.113Z,57.8
2017-10-06T12:24:39.401Z,58.83
2017-10-06T12:25:49.820Z,58.25
2017-10-06T12:26:59.787Z,58.73
2017-10-06T12:28:09.766Z,59.3
2017-10-06T12:29:20.057Z,59.4
2017-10-06T12:30:30.345Z,59.59
2017-10-06T12:31:40.738Z,60.04
2017-10-06T12:32:50.698Z,60.04
2017-10-06T12:34:00.018Z,60.99
2017-10-06T12:35:09.666Z,60.71
2017-10-06T12:36:19.948Z,60.04
2017-10-06T12:37:30.014Z,60.9
2017-10-06T12:38:39.977Z,61.22
2017-10-06T12:39:49.297Z,60.26
2017-10-06T12:40:58.937Z,60.35
2017-10-06T12:42:08.593Z,60.8
2017-10-06T12:43:18.857Z,60.71
2017-10-06T12:44:28.825Z,59.56
2017-10-06T12:45:38.467Z,61.41
2017-10-06T12:46:48.111Z,59.88
2017-10-06T12:47:58.080Z,60.93
2017-10-06T12:49:07.829Z,60.74
2017-10-06T12:50:18.117Z,61.98
2017-10-06T12:51:28.404Z,61.31
2017-10-06T12:52:38.055Z,60.55
2017-10-06T12:53:48.349Z,59.49
2017-10-06T12:54:58.695Z,59.2
2017-10-06T12:56:08.658Z,60.06
2017-10-06T12:57:18.951Z,60.35
2017-10-06T12:58:29.244Z,60.71
2017-10-06T12:59:39.208Z,60.52
2017-10-06T13:00:49.603Z,59.49
2017-10-06T13:01:59.897Z,60.93
2017-10-06T13:03:09.562Z,59.78
2017-10-06T13:04:19.853Z,60.35
2017-10-06T13:05:30.140Z,60.71
2017-10-06T13:06:40.528Z,59.84
2017-10-06T13:07:50.488Z,60.8
2017-10-06T13:09:00.129Z,60.61
2017-10-06T13:10:10.422Z,60.33
2017-10-06T13:11:20.709Z,59.27
2017-10-06T13:12:31.097Z,60.33
2017-10-06T13:13:40.738Z,60.61
2017-10-06T13:14:51.025Z,60.8
2017-10-06T13:16:01.312Z,60.71
2017-10-06T13:17:10.954Z,61.28
2017-10-06T13:18:21.017Z,59.47
2017-10-06T13:19:31.304Z,58.8
2017-10-06T13:20:40.944Z,58.89
2017-10-06T13:21:51.229Z,59.37
2017-10-06T13:23:01.517Z,58.51
2017-10-06T13:24:11.583Z,59.27
2017-10-06T13:25:21.547Z,58.32
2017-10-06T13:26:31.508Z,58.03
2017-10-06T13:27:41.158Z,58.61
2017-10-06T13:28:51.126Z,57.75
2017-10-06T13:30:01.190Z,57.93
2017-10-06T13:31:10.861Z,57.26
2017-10-06T13:32:20.824Z,58.32
2017-10-06T13:33:30.465Z,58.98
2017-10-06T13:34:40.112Z,57.97
2017-10-06T13:35:49.853Z,57.97
2017-10-06T13:37:00.138Z,58.32
2017-10-06T13:38:10.420Z,58.22
2017-10-06T13:39:20.063Z,59.47
2017-10-06T13:40:30.025Z,58.41
2017-10-06T13:41:40.664Z,58.61
2017-10-06T13:42:50.957Z,59.56
2017-10-06T13:44:01.238Z,58.8
2017-10-06T13:45:11.521Z,58.51
2017-10-06T13:46:21.483Z,58.61
2017-10-06T13:47:31.864Z,57.07
2017-10-06T13:48:41.506Z,58.61
2017-10-06T13:49:51.792Z,58.89
2017-10-06T13:51:01.756Z,58.89
2017-10-06T13:52:12.039Z,58.8
2017-10-06T13:53:22.426Z,59.37
2017-10-06T13:54:32.712Z,59.94
2017-10-06T13:55:42.352Z,59.27
2017-10-06T13:56:52.319Z,58.98
2017-10-06T13:58:02.600Z,60.9
2017-10-06T13:59:12.665Z,59.27
2017-10-06T14:00:22.956Z,59.08
2017-10-06T14:01:33.236Z,60.04
2017-10-06T14:02:43.535Z,59.84
2017-10-06T14:03:53.818Z,59.75
2017-10-06T14:05:03.882Z,59.08
2017-10-06T14:06:13.849Z,59.37
2017-10-06T14:07:23.488Z,58.7
2017-10-06T14:08:32.802Z,60.04
2017-10-06T14:09:42.764Z,59.47
2017-10-06T14:10:53.153Z,60.23
2017-10-06T14:12:03.113Z,60.52
2017-10-06T14:13:13.402Z,59.75
2017-10-06T14:14:23.690Z,59.56
2017-10-06T14:15:33.651Z,59.27
2017-10-06T14:16:43.912Z,59.27
2017-10-06T14:17:53.879Z,60.61
2017-10-06T14:19:04.166Z,60.8
2017-10-06T14:20:14.128Z,60.04
2017-10-06T14:21:24.101Z,59.44
2017-10-06T14:22:38.217Z,60.2
2017-10-06T14:23:47.867Z,60.96
2017-10-06T14:24:57.830Z,60.04
2017-10-06T14:26:08.122Z,59.72
2017-10-06T14:27:18.086Z,59.91
2017-10-06T14:28:28.152Z,59.72
2017-10-06T14:29:38.130Z,59.81
2017-10-06T14:30:48.089Z,61.06
2017-10-06T14:31:58.372Z,60.99
2017-10-06T14:33:08.663Z,60.39
2017-10-06T14:34:18.975Z,60.2
2017-10-06T14:35:28.953Z,60.1
2017-10-06T14:36:38.916Z,61.44
2017-10-06T14:37:48.881Z,61.98
2017-10-06T14:38:59.174Z,62.75
2017-10-06T14:40:09.557Z,61.98
2017-10-06T14:41:19.851Z,62.08
2017-10-06T14:42:30.137Z,61.79
2017-10-06T14:43:40.417Z,62.08
2017-10-06T14:44:50.707Z,63.32
2017-10-06T14:46:00.453Z,62.94
2017-10-06T14:47:10.414Z,62.65
2017-10-06T14:48:20.701Z,63.13
2017-10-06T14:49:30.662Z,62.91
2017-10-06T14:50:40.622Z,63.13
2017-10-06T14:51:51.016Z,63.1
2017-10-06T14:53:01.303Z,63.7
2017-10-06T14:54:11.262Z,63.86
2017-10-06T14:55:21.235Z,64.09
2017-10-06T14:56:31.198Z,63
2017-10-06T14:57:41.314Z,62.81
2017-10-06T14:58:51.280Z,62.81
2017-10-06T15:00:00.918Z,62.94
2017-10-06T15:01:11.205Z,62.62
2017-10-06T15:02:21.166Z,62.52
2017-10-06T15:03:31.226Z,63.2
2017-10-06T15:04:41.185Z,63.1
2017-10-06T15:05:51.148Z,63.2
2017-10-06T15:07:01.110Z,63.2
2017-10-06T15:08:11.079Z,63.96
2017-10-06T15:09:20.824Z,64.05
2017-10-06T15:10:31.111Z,63.86
2017-10-06T15:11:41.074Z,64.05
2017-10-06T15:12:51.357Z,64.91
2017-10-06T15:14:00.996Z,64.72
2017-10-06T15:15:11.059Z,65.58
2017-10-06T15:16:21.340Z,65.39
2017-10-06T15:17:31.304Z,65.3
2017-10-06T15:18:40.949Z,65.01
2017-10-06T15:19:50.590Z,65.48
2017-10-06T15:21:00.689Z,65.67
2017-10-06T15:22:10.659Z,65.39
2017-10-06T15:23:20.961Z,65.67
2017-10-06T15:24:30.602Z,65.67
2017-10-06T15:25:40.284Z,65.48
2017-10-06T15:26:52.877Z,65.58
2017-10-06T15:28:03.165Z,65.01
2017-10-06T15:29:13.127Z,65.48
2017-10-06T15:30:23.088Z,66.82
2017-10-06T15:31:33.380Z,68.35
2017-10-06T15:32:43.122Z,69.74
2017-10-06T15:33:53.405Z,69.87
2017-10-06T15:35:03.694Z,69.46
2017-10-06T15:36:13.992Z,69.74
2017-10-06T15:37:24.282Z,69.65
2017-10-06T15:38:34.022Z,69.56
2017-10-06T15:39:44.307Z,70.13
2017-10-06T15:40:53.947Z,70.22
2017-10-06T15:42:03.911Z,70.51
2017-10-06T15:43:13.872Z,70.32
2017-10-06T15:44:24.453Z,67.55
2017-10-06T15:45:34.427Z,66.31
2017-10-06T15:46:44.387Z,66.88
2017-10-06T15:47:54.024Z,68.12
2017-10-06T15:49:04.312Z,68.88
2017-10-06T15:50:14.054Z,70.32
2017-10-06T15:51:24.335Z,69.93
2017-10-06T15:52:33.974Z,70.42
2017-10-06T15:53:43.610Z,70.79
2017-10-06T15:54:53.892Z,71.66
2017-10-06T15:56:04.277Z,72.89
2017-10-06T15:57:14.560Z,73.66
2017-10-06T15:58:24.854Z,72.19
2017-10-06T15:59:35.136Z,70.86
2017-10-06T16:00:45.417Z,72.38
2017-10-06T16:01:55.155Z,72.38
2017-10-06T16:03:05.436Z,72.57
2017-10-06T16:04:15.713Z,73.05
2017-10-06T16:05:25.991Z,72.38
2017-10-06T16:06:35.952Z,72.86
2017-10-06T16:07:46.013Z,72.57
2017-10-06T16:08:55.980Z,72.86
2017-10-06T16:10:05.940Z,74.48
2017-10-06T16:11:15.900Z,76.01
2017-10-06T16:12:25.866Z,76.86
2017-10-06T16:13:35.602Z,76.67
2017-10-06T16:14:45.560Z,76.96
2017-10-06T16:15:55.197Z,76.1
2017-10-06T16:17:05.477Z,76.77
2017-10-06T16:18:15.434Z,77.3
2017-10-06T16:19:25.821Z,78.25
2017-10-06T16:20:35.802Z,77.78
2017-10-06T16:21:46.085Z,77.97
2017-10-06T16:22:56.072Z,76.25
2017-10-06T16:24:06.381Z,76.54
2017-10-06T16:25:16.456Z,76.44
2017-10-06T16:26:26.737Z,76.64
2017-10-06T16:27:36.697Z,76.16
2017-10-06T16:28:46.331Z,77.2
2017-10-06T16:29:56.609Z,76.82
2017-10-06T16:31:06.992Z,77.11
2017-10-06T16:32:16.947Z,76.44
2017-10-06T16:33:27.229Z,76.73
2017-10-06T16:34:37.190Z,77.01
2017-10-06T16:35:47.151Z,75.4
2017-10-06T16:36:57.140Z,75.3
2017-10-06T16:38:06.777Z,75.87
2017-10-06T16:39:16.733Z,75.96
2017-10-06T16:40:27.014Z,76.06
2017-10-06T16:41:37.292Z,75.59
2017-10-06T16:42:46.704Z,75.68
2017-10-06T16:43:56.980Z,75.4
2017-10-06T16:45:07.263Z,75.78
2017-10-06T16:46:16.898Z,74.82
2017-10-06T16:47:26.857Z,73.87
2017-10-06T16:48:36.913Z,73.68
2017-10-06T16:49:46.880Z,74.06
2017-10-06T16:50:56.514Z,74.35
2017-10-06T16:52:06.163Z,73.49
2017-10-06T16:53:16.124Z,73.11
2017-10-06T16:54:26.503Z,73.3
2017-10-06T16:55:36.460Z,72.82
2017-10-06T16:56:46.417Z,72.34
2017-10-06T16:57:56.374Z,71.96
2017-10-06T16:59:06.655Z,72.44
2017-10-06T17:00:17.185Z,72.06
2017-10-06T17:01:27.465Z,72.63
2017-10-06T17:02:37.101Z,72.82
2017-10-06T17:03:46.736Z,72.44
2017-10-06T17:04:57.016Z,71.77
2017-10-06T17:06:07.073Z,72.92
2017-10-06T17:07:17.032Z,72.72
2017-10-06T17:08:27.311Z,72.25
2017-10-06T17:09:37.598Z,71.48
2017-10-06T17:10:47.875Z,71.48
2017-10-06T17:11:58.268Z,72.06
2017-10-06T17:13:08.226Z,72.44
2017-10-06T17:14:18.199Z,72.44
2017-10-06T17:15:28.479Z,72.82
2017-10-06T17:16:38.760Z,73.01
2017-10-06T17:17:48.172Z,73.68
2017-10-06T17:18:58.128Z,73.39
2017-10-06T17:20:08.413Z,73.39
2017-10-06T17:21:18.690Z,73.68
2017-10-06T17:22:28.649Z,73.58
2017-10-06T17:23:38.707Z,73.49
2017-10-06T17:24:48.989Z,73.3
2017-10-06T17:25:59.271Z,73.3
2017-10-06T17:27:09.555Z,73.87
2017-10-06T17:28:19.836Z,73.39
2017-10-06T17:29:29.892Z,74.06
2017-10-06T17:30:39.852Z,73.39
2017-10-06T17:31:49.813Z,73.3
2017-10-06T17:32:59.775Z,73.96
2017-10-06T17:34:09.735Z,73.58
2017-10-06T17:35:20.315Z,73.68
2017-10-06T17:36:30.281Z,73.87
2017-10-06T17:37:40.243Z,73.87
2017-10-06T17:38:49.904Z,74.12
2017-10-06T17:39:59.872Z,73.87
2017-10-06T17:41:09.932Z,72.78
2017-10-06T17:42:20.214Z,72.41
2017-10-06T17:43:30.494Z,72.78
2017-10-06T17:44:40.138Z,72.44
2017-10-06T17:45:49.450Z,71.87
2017-10-06T17:46:59.509Z,72.12
2017-10-06T17:48:09.467Z,71.64
2017-10-06T17:49:19.436Z,71.58
2017-10-06T17:50:29.714Z,72.12
2017-10-06T17:51:39.350Z,72.12
2017-10-06T17:52:49.410Z,71.68
2017-10-06T17:53:59.370Z,72.41
2017-10-06T17:55:09.660Z,72.31
2017-10-06T17:56:19.615Z,71.45
2017-10-06T17:57:29.610Z,71.64
2017-10-06T17:58:39.993Z,71.55
2017-10-06T17:59:49.309Z,71.73
2017-10-06T18:00:59.588Z,72.12
2017-10-06T18:02:09.548Z,72.21
2017-10-06T18:03:19.835Z,71.73
2017-10-06T18:04:30.223Z,71.93
2017-10-06T18:05:40.188Z,73.17
2017-10-06T18:06:49.822Z,72.41
2017-10-06T18:08:00.136Z,72.78
2017-10-06T18:09:09.772Z,73.55
2017-10-06T18:10:19.830Z,74.02
2017-10-06T18:11:30.109Z,73.55
2017-10-06T18:12:40.395Z,73.26
2017-10-06T18:13:50.675Z,73.65
2017-10-06T18:15:00.639Z,73.55
2017-10-06T18:16:10.697Z,73.45
2017-10-06T18:17:20.978Z,73.45
2017-10-06T18:18:31.257Z,72.69
2017-10-06T18:19:41.535Z,72.41
2017-10-06T18:20:51.825Z,72.69
2017-10-06T18:22:04.208Z,72.6
2017-10-06T18:23:14.496Z,72.5
2017-10-06T18:24:24.780Z,71.93
2017-10-06T18:25:34.744Z,71.93
2017-10-06T18:26:44.702Z,72.02
2017-10-06T18:27:55.232Z,72.6
2017-10-06T18:29:05.191Z,72.12
2017-10-06T18:30:15.472Z,71.36
2017-10-06T18:31:25.753Z,71.55
2017-10-06T18:32:35.714Z,71.58
2017-10-06T18:33:46.094Z,72.5
2017-10-06T18:34:56.381Z,71.96
2017-10-06T18:36:06.343Z,72.06
2017-10-06T18:37:16.306Z,72.06
2017-10-06T18:38:26.266Z,72.5
2017-10-06T18:39:36.646Z,72.41
2017-10-06T18:40:46.284Z,72.41
2017-10-06T18:41:56.564Z,72.88
2017-10-06T18:43:06.528Z,72.6
2017-10-06T18:44:16.496Z,72.41
2017-10-06T18:45:26.804Z,72.31
2017-10-06T18:46:37.098Z,73.26
2017-10-06T18:47:47.064Z,74.6
2017-10-06T18:48:57.021Z,75.26
2017-10-06T18:50:06.978Z,76.21
2017-10-06T18:51:19.357Z,77.74
2017-10-06T18:52:29.635Z,79.03
2017-10-06T18:53:39.270Z,79.7
2017-10-06T18:54:49.228Z,81.41
2017-10-06T18:55:58.860Z,81.66
2017-10-06T18:57:08.918Z,81.85
2017-10-06T18:58:19.198Z,82.8
2017-10-06T18:59:29.477Z,84.13
2017-10-06T19:00:39.111Z,84.33
2017-10-06T19:01:49.074Z,85.56
2017-10-06T19:02:59.453Z,85.04
2017-10-06T19:04:09.416Z,84.95
2017-10-06T19:05:19.374Z,84.66
2017-10-06T19:06:29.332Z,84.47
2017-10-06T19:07:39.297Z,84.38
2017-10-06T19:08:49.353Z,84.28
2017-10-06T19:09:59.630Z,85.42
2017-10-06T19:11:09.593Z,85.99
2017-10-06T19:12:19.549Z,85.04
2017-10-06T19:13:29.831Z,85.52
2017-10-06T19:14:40.212Z,85.52
2017-10-06T19:15:50.177Z,85.42
2017-10-06T19:17:00.459Z,85.14
2017-10-06T19:18:10.417Z,85.04
2017-10-06T19:19:20.698Z,85.52
2017-10-06T19:20:31.082Z,85.04
2017-10-06T19:21:41.357Z,84.47
2017-10-06T19:22:51.648Z,83.62
2017-10-06T19:24:01.927Z,83.23
2017-10-06T19:25:11.560Z,81.52
2017-10-06T19:26:21.625Z,81.9
2017-10-06T19:27:31.908Z,81.9
2017-10-06T19:28:41.901Z,81.52
2017-10-06T19:29:52.179Z,81.24
2017-10-06T19:31:02.472Z,81.05
2017-10-06T19:32:12.779Z,81.66
2017-10-06T19:33:22.418Z,81.62
2017-10-06T19:34:32.383Z,82.09
2017-10-06T19:35:42.339Z,82.51
2017-10-06T19:36:52.296Z,82.28
2017-10-06T19:38:02.677Z,82.67
2017-10-06T19:39:12.639Z,82.86
2017-10-06T19:40:22.616Z,83.14
2017-10-06T19:41:32.581Z,82.95
2017-10-06T19:42:42.545Z,83.23
2017-10-06T19:43:52.605Z,83.42
2017-10-06T19:45:02.568Z,83.81
2017-10-06T19:46:12.534Z,84.47
2017-10-06T19:47:22.813Z,84.56
2017-10-06T19:48:32.446Z,84.47
2017-10-06T19:49:42.502Z,84.85
2017-10-06T19:50:51.495Z,85.86
2017-10-06T19:52:01.780Z,85.95
2017-10-06T19:53:11.417Z,86.33
2017-10-06T19:54:21.698Z,85.66
2017-10-06T19:55:32.287Z,85.57
2017-10-06T19:56:41.922Z,85.1
2017-10-06T19:57:52.199Z,85.76
2017-10-06T19:59:02.485Z,86.14
2017-10-06T20:00:12.444Z,85.57
2017-10-06T20:01:24.759Z,86.14
2017-10-06T20:02:34.720Z,85.95
2017-10-06T20:03:44.689Z,85.95
2017-10-06T20:04:54.964Z,85.57
2017-10-06T20:06:04.922Z,85.57
2017-10-06T20:07:14.985Z,85.66
2017-10-06T20:08:25.261Z,84.52
2017-10-06T20:09:34.898Z,83.58
2017-10-06T20:10:44.540Z,83
2017-10-06T20:11:54.824Z,81.77
2017-10-06T20:13:05.207Z,82.15
2017-10-06T20:14:14.840Z,80.82
2017-10-06T20:15:25.124Z,81.01
2017-10-06T20:16:34.760Z,80.1
2017-10-06T20:17:45.036Z,79.81
2017-10-06T20:18:55.415Z,79.43
2017-10-06T20:20:05.379Z,79.52
2017-10-06T20:21:15.664Z,78.67
2017-10-06T20:22:25.299Z,78.77
2017-10-06T20:23:35.578Z,78.29
2017-10-06T20:24:45.638Z,78.29
2017-10-06T20:25:55.273Z,78.1
2017-10-06T20:27:05.227Z,78.77
2017-10-06T20:28:15.213Z,79.05
2017-10-06T20:29:25.176Z,79.91
2017-10-06T20:30:35.551Z,79.52
2017-10-06T20:31:45.507Z,79.24
2017-10-06T20:32:55.465Z,79.43
2017-10-06T20:34:05.744Z,79.33
2017-10-06T20:35:16.036Z,80
2017-10-06T20:36:26.091Z,79.81
2017-10-06T20:37:36.369Z,80
2017-10-06T20:38:46.329Z,80.29
2017-10-06T20:39:55.964Z,80.95
2017-10-06T20:41:06.250Z,81.9
2017-10-06T20:42:16.311Z,82.09
2017-10-06T20:43:26.268Z,82.09
2017-10-06T20:44:36.547Z,82.48
2017-10-06T20:45:46.503Z,82.19
2017-10-06T20:46:56.465Z,82.86
2017-10-06T20:48:06.846Z,83.14
2017-10-06T20:49:16.804Z,83.29
2017-10-06T20:50:26.437Z,83.58
2017-10-06T20:51:36.715Z,83.95
2017-10-06T20:52:46.992Z,83.39
2017-10-06T20:53:57.047Z,84.14
2017-10-06T20:55:07.363Z,84.43
2017-10-06T20:56:17.645Z,85.19
2017-10-06T20:57:27.600Z,86.14
2017-10-06T20:58:37.557Z,86.05
2017-10-06T20:59:47.619Z,85.86
2017-10-06T21:00:57.899Z,85.86
2017-10-06T21:02:08.179Z,86.71
2017-10-06T21:03:18.133Z,86.71
2017-10-06T21:04:27.775Z,86.24
2017-10-06T21:05:38.155Z,85.47
2017-10-06T21:06:47.788Z,85.86
2017-10-06T21:07:57.745Z,85.1
2017-10-06T21:09:08.025Z,85.47
2017-10-06T21:10:18.303Z,85.47
2017-10-06T21:11:28.359Z,85.28
2017-10-06T21:12:38.640Z,84.62
2017-10-06T21:13:48.915Z,84.62
2017-10-06T21:14:59.194Z,84.14
2017-10-06T21:16:09.154Z,83.48
2017-10-06T21:17:19.226Z,84.62
2017-10-06T21:18:28.866Z,85
2017-10-06T21:19:38.830Z,85.38
2017-10-06T21:20:48.792Z,85.19
2017-10-06T21:21:58.431Z,84.33
2017-10-06T21:23:08.642Z,84.62
2017-10-06T21:24:18.919Z,85.47
2017-10-06T21:25:28.875Z,85
2017-10-06T21:26:39.155Z,85.38
2017-10-06T21:27:48.789Z,86.33
2017-10-06T21:28:58.853Z,85.76
2017-10-06T21:30:09.133Z,85.19
2017-10-06T21:31:19.416Z,85.19
2017-10-06T21:32:29.371Z,85.38
2017-10-06T21:33:39.329Z,84.91
2017-10-06T21:34:49.906Z,85.28
2017-10-06T21:36:00.185Z,85.28
2017-10-06T21:37:09.819Z,85.76
2017-10-06T21:38:19.773Z,86.52
2017-10-06T21:39:29.728Z,86.8
2017-10-06T21:40:39.789Z,85.95
2017-10-06T21:41:50.066Z,86.14
2017-10-06T21:43:00.025Z,85.86
2017-10-06T21:44:09.982Z,85.86
2017-10-06T21:45:19.620Z,86.8
2017-10-06T21:46:30.007Z,85.86
2017-10-06T21:47:39.963Z,86.52
2017-10-06T21:48:50.249Z,86.33
2017-10-06T21:50:00.206Z,86.14
2017-10-06T21:51:09.839Z,86.24
2017-10-06T21:52:20.159Z,85.95
2017-10-06T21:53:30.439Z,86.8
2017-10-06T21:54:40.718Z,86.71
2017-10-06T21:55:50.677Z,86.33
2017-10-06T21:57:00.635Z,86.61
2017-10-06T21:58:10.047Z,86.05
2017-10-06T21:59:20.326Z,86.24
2017-10-06T22:00:30.603Z,86.14
2017-10-06T22:01:40.881Z,86.33
2017-10-06T22:02:51.158Z,86.43
2017-10-06T22:04:00.891Z,85.76
2017-10-06T22:05:10.851Z,86.99
2017-10-06T22:06:20.805Z,86.52
2017-10-06T22:07:30.443Z,86.9
2017-10-06T22:08:40.078Z,86.43
2017-10-06T22:09:49.841Z,86.14
2017-10-06T22:10:59.793Z,86.05
2017-10-06T22:12:09.428Z,86.14
2017-10-06T22:13:19.058Z,86.05
2017-10-06T22:14:29.015Z,86.14
2017-10-06T22:15:39.414Z,86.05
2017-10-06T22:16:49.690Z,86.52
2017-10-06T22:17:59.974Z,86.52
2017-10-06T22:19:09.930Z,85.86
2017-10-06T22:20:20.210Z,86.14
2017-10-06T22:21:30.266Z,86.05
2017-10-06T22:22:40.541Z,86.67
2017-10-06T22:23:50.821Z,85.91
2017-10-06T22:25:00.467Z,86.95
2017-10-06T22:26:10.421Z,87.05
2017-10-06T22:27:20.477Z,86.76
2017-10-06T22:28:30.757Z,86.86
2017-10-06T22:29:41.034Z,86.47
2017-10-06T22:30:51.311Z,87.24
2017-10-06T22:32:01.607Z,87.62
2017-10-06T22:33:11.343Z,87.71
2017-10-06T22:34:21.296Z,87.34
2017-10-06T22:35:31.574Z,88.47
2017-10-06T22:36:41.535Z,87.81
2017-10-06T22:37:51.812Z,87.9
2017-10-06T22:39:02.489Z,88
2017-10-06T22:40:12.440Z,87.9
2017-10-06T22:41:22.715Z,88
2017-10-06T22:42:32.981Z,86.67
2017-10-06T22:43:43.253Z,87.62
2017-10-06T22:44:53.306Z,87.71
2017-10-06T22:46:03.574Z,87.43
2017-10-06T22:47:13.844Z,87.62
2017-10-06T22:48:24.115Z,86.67
2017-10-06T22:49:34.068Z,86.38
2017-10-06T22:50:46.113Z,86.86
2017-10-06T22:51:56.425Z,86.38
2017-10-06T22:53:06.718Z,86.47
2017-10-06T22:54:16.664Z,86.47
2017-10-06T22:55:26.939Z,85.91
2017-10-06T22:56:36.986Z,86.1
2017-10-06T22:57:47.271Z,86
2017-10-06T22:58:57.541Z,86.67
2017-10-06T23:00:07.175Z,86.76
2017-10-06T23:01:17.122Z,86.76
2017-10-06T23:02:27.705Z,86.57
2017-10-06T23:03:37.977Z,86.29
2017-10-06T23:04:47.937Z,86
2017-10-06T23:05:57.896Z,86
2017-10-06T23:07:08.174Z,85.53
2017-10-06T23:08:18.227Z,85.62
2017-10-06T23:09:28.506Z,86
2017-10-06T23:10:38.815Z,85.72